Historyczne dane pomiarowe

Dodano dane terminowe – wersja testowa.

Dane z okresu 1951-2019

Wersja bazy: 1.34 [2019-03-16, lista zmian], aktualizacja planowana na 2019-04-15

Dane meteo z obszaru Polski uzyskane na podstawie danych udostępnionych przez Instytut Meteorologii i Gospodarki Wodnej – Państwowy Instytut Badawczy.

 

Wybierz Datę:    

       

TemperaturaWilgotnośćWiatrCiśnienieOpadyŚniegCzas trwania zjawisk
 Stacja t tx tn tng RH VA  wxwx mslp ppp RRR   cm mm wxwxwxwxwxwxwx
1999-08-14 14.6 20.4 7.6- 79.5- 2.0 1.3---- 0.0------------
1999-08-13 15.8 20.3 11.3- 86.3- 4.7 1.0---- 0.0------------
1999-08-12 17.8 24.3 14.6- 82.0- 6.3 1.3---- 0.0------------
1999-08-11 19.6 23.4 15.4- 91.5- 3.3 0.3---- 6.4------------
1999-08-10 21.4 29.5 16.5- 90.8- 6.7 1.0---- 29.1------------
1999-08-09 21.2 31.2 13.1- 86.0- 2.7 0.3---- 26.0------------
1999-08-08 22.1 28.3 15.8- 86.3- 4.7 0.0---- 0.0------------
1999-08-07 20.9 28.7 12.2- 80.8- 3.0 0.7---- 0.0------------
1999-08-06 19.6 26.2 14.7- 90.5- 5.3 0.3---- 0.3------------
1999-08-05 17.1 25.5 8.7- 86.8- 1.7 0.0---- 4.6------------
1999-08-04 16.7 23.7 9.2- 85.0- 3.7 0.7---- 0.0------------
1999-08-03 15.7 21.8 10.0- 88.5- 6.0 0.3---- 0.0------------
1999-08-02 14.8 19.2 10.2- 91.8- 7.0 0.3---- 0.4------------
1999-08-01 16.0 24.0 9.0- 89.0- 2.0 0.0---- 1.1------------
1999-07-31 17.3 24.1 10.0- 78.3- 3.7 1.3---- 0.1------------
1999-07-30 16.8 23.9 8.6- 80.3- 1.7 0.7---- 0.0------------
1999-07-29 17.1 23.1 12.1- 87.0- 4.7 0.7---- 0.0------------
1999-07-28 18.2 23.0 15.3- 92.5- 5.0 0.7---- 0.0------------
1999-07-27 20.0 23.5 17.5- 96.0- 7.7 0.0---- 1.7------------
1999-07-26 20.1 26.7 12.4- 88.8- 6.3 0.7---- 0.3------------
1999-07-25 18.2 24.2 11.1- 86.3- 4.7 0.3---- 0.0------------
1999-07-24 16.9 21.7 12.1- 89.3- 6.7 1.3---- 0.0------------
1999-07-23 15.9 19.9 14.2- 95.5- 7.3 0.7---- 15.7------------
1999-07-22 20.4 24.4 14.5- 80.0- 5.7 1.3---- 15.6------------
1999-07-21 21.8 29.2 13.0- 82.3- 4.0 0.7---- 0.0------------
1999-07-20 20.1 28.2 11.0- 83.3- 1.3 0.7---- 0.0------------
1999-07-19 19.5 27.2 9.0- 80.3- 2.0 0.7---- 0.0------------
1999-07-18 17.4 24.7 8.2- 81.8- 2.0 0.0---- 0.0------------
1999-07-17 16.0 22.9 9.0- 89.8- 1.3 0.3---- 0.0------------
1999-07-16 16.6 21.8 9.7- 83.8- 3.7 1.3---- 1.0------------
1999-07-15 17.6 21.7 15.5- 89.3- 4.7 1.3---- 0.6------------
1999-07-14 21.0 24.4 17.0- 87.0- 4.0 1.3---- 6.1------------
1999-07-13 21.2 25.0 17.0- 83.3- 3.7 1.0---- 2.3------------
1999-07-12 19.9 26.3 14.0- 91.0- 2.3 0.3---- 0.5------------
1999-07-11 20.3 23.0 17.8- 87.3- 4.7 1.0---- 4.9------------
1999-07-10 19.9 22.5 18.2- 87.8- 7.0 0.7---- 0.0------------
1999-07-09 20.6 24.3 17.3- 91.5- 4.7 1.3---- 0.3------------
1999-07-08 20.7 24.5 18.3- 94.3- 6.7 1.0---- 13.6------------
1999-07-07 21.7 28.1 16.6- 94.0- 5.7 1.0---- 20.4------------
1999-07-06 24.4 31.6 12.2- 73.3- 1.0 1.7---- 0.0------------
1999-07-05 23.1 30.5 12.3- 74.5- 0.3 0.3---- 0.0------------
1999-07-04 20.2 29.7 10.9- 81.0- 1.3 0.7---- 0.0------------
1999-07-03 19.5 25.3 14.7- 84.3- 1.7 1.0---- 0.0------------
1999-07-02 19.5 25.5 11.8- 86.5- 3.0 1.3---- 0.0------------
1999-07-01 18.6 25.0 10.7- 84.8- 3.7 0.3---- 0.0------------
1999-06-30 19.1 24.8 12.0- 88.0- 3.0 0.0---- 0.0------------
1999-06-29 19.4 24.1 14.6- 85.0- 4.0 0.7---- 0.0------------
1999-06-28 19.8 28.5 8.7- 79.3- 2.7 1.3---- 0.3------------
1999-06-27 18.5 26.6 7.5- 73.8- 0.7 1.0---- 0.0------------
1999-06-26 15.8 23.5 5.0- 76.3- 1.3 0.3---- 0.0------------
1999-06-25 13.7 19.2 7.4- 81.5- 1.0 1.3---- 0.0------------
1999-06-24 10.9 13.2 8.3- 94.8- 7.7 0.3---- 3.6------------
1999-06-23 9.7 10.9 8.4- 95.0- 8.0 3.3---- 14.0------------
1999-06-22 11.7 15.7 9.3- 95.5- 8.0 2.3---- 24.8------------
1999-06-21 17.7 22.3 15.6- 95.8- 7.7 0.0---- 36.6------------
1999-06-20 18.7 22.4 14.6- 90.0- 6.7 0.7---- 0.3------------
1999-06-19 17.1 21.3 14.3- 87.5- 3.3 2.0---- 0.0------------
1999-06-18 18.6 22.0 16.7- 92.5- 6.3 0.0---- 5.7------------
1999-06-17 19.6 23.4 17.4- 91.3- 5.7 0.0---- 10.0------------
1999-06-16 18.3 21.1 16.2- 95.3- 7.0 0.0---- 1.3------------
640.0 ms

 

Źródłem pochodzenia danych jest Instytut Meteorologii i Gospodarki Wodnej – Państwowy Instytut Badawczy. Dane Instytutu Meteorologii i Gospodarki Wodnej – Państwowego Instytutu Badawczego zostały przetworzone.

Dane źródłowe można odnaleźć na stronie https://dane.imgw.pl